ROMMA est une association bénévole à but non lucratif. Votre soutien est indispensable : ADHERER à ROMMA ou FAIRE un DON

Taninges - (74, Haute-Savoie)

Vallée du Giffre (635 m)   Longitude: 06° 35' 38" E   Latitude: 46° 06' 21" N Station romma n°98
 

Détail journalier du     <<     >>

Température Precipitation Humidité Pression Vent Dir Rafale Dir. rafale Ensol.
Heure (°C) (mm) (%) (hPa) (km/h) (km/h) (min)
01:00 6.108910151SSE6SE0
02:00 4.7092101503SSE0
03:00 3.6093101503SSE0
04:00 3.109410151ESE3SE0
05:00 1.709410151ESE3ESE0
06:00 1.5095101402ESE0
07:00 1.2095101503SE0
08:00 3.9097101502ESE30
09:00 7.109410141SE5SSO60
10:00 10.708110133SSO15OSO60
11:00 12.0078101310SO19SO60
12:00 13.6076101311OSO23OSO60
13:00 15.4067101313SO23OSO60
14:00 16.7066101213OSO26SSO60
15:00 17.7058101212OSO24ONO60
16:00 18.8054101110O24OSO60
17:00 18.7046101110O23OSO60
18:00 18.604310119O19O60
19:00 18.304010127O16OSO60
20:00 16.205110123O11OSO20
21:00 12.406210121NE6NE0
22:00 9.907310131E10ENE0
23:00 7.1083101303E0
minuit 5.8088101302E0

Graphique du 01-05-2019

 

Serveur OMMA